sensor_id;sensor_type;location;lat;lon;timestamp;pressure;altitude;pressure_sealevel;temperature;humidity
73651;BME280;61944;52.538;6.108;2023-04-25T00:00:56;100848.75;;;7.98;100.00
73651;BME280;61944;52.538;6.108;2023-04-25T00:03:22;100859.66;;;7.87;100.00
73651;BME280;61944;52.538;6.108;2023-04-25T00:05:50;100853.34;;;7.74;100.00
73651;BME280;61944;52.538;6.108;2023-04-25T00:08:16;100845.97;;;7.66;100.00
73651;BME280;61944;52.538;6.108;2023-04-25T00:10:42;100850.38;;;7.51;100.00
73651;BME280;61944;52.538;6.108;2023-04-25T00:13:07;100856.22;;;7.62;100.00
73651;BME280;61944;52.538;6.108;2023-04-25T00:15:33;100856.50;;;7.72;100.00
73651;BME280;61944;52.538;6.108;2023-04-25T00:17:58;100847.50;;;7.47;100.00
73651;BME280;61944;52.538;6.108;2023-04-25T00:20:24;100850.28;;;7.47;100.00
73651;BME280;61944;52.538;6.108;2023-04-25T00:22:50;100846.44;;;7.68;100.00
73651;BME280;61944;52.538;6.108;2023-04-25T00:25:16;100847.50;;;7.79;100.00
73651;BME280;61944;52.538;6.108;2023-04-25T00:27:41;100857.81;;;7.63;100.00
73651;BME280;61944;52.538;6.108;2023-04-25T00:30:07;100853.06;;;7.47;100.00
73651;BME280;61944;52.538;6.108;2023-04-25T00:32:33;100862.03;;;7.57;100.00
73651;BME280;61944;52.538;6.108;2023-04-25T00:34:58;100857.38;;;7.61;100.00
73651;BME280;61944;52.538;6.108;2023-04-25T00:37:24;100855.56;;;7.52;100.00
73651;BME280;61944;52.538;6.108;2023-04-25T00:39:52;100858.81;;;7.54;100.00
73651;BME280;61944;52.538;6.108;2023-04-25T00:42:19;100858.63;;;7.47;100.00
73651;BME280;61944;52.538;6.108;2023-04-25T00:44:46;100855.72;;;7.00;100.00
73651;BME280;61944;52.538;6.108;2023-04-25T00:47:11;100861.69;;;7.42;100.00
73651;BME280;61944;52.538;6.108;2023-04-25T00:49:37;100861.88;;;7.49;100.00
73651;BME280;61944;52.538;6.108;2023-04-25T00:52:02;100861.13;;;7.52;100.00
73651;BME280;61944;52.538;6.108;2023-04-25T00:54:28;100863.22;;;7.56;100.00
73651;BME280;61944;52.538;6.108;2023-04-25T00:56:56;100860.25;;;7.48;100.00
73651;BME280;61944;52.538;6.108;2023-04-25T00:59:21;100862.94;;;7.61;100.00
73651;BME280;61944;52.538;6.108;2023-04-25T01:01:47;100860.63;;;7.63;100.00
73651;BME280;61944;52.538;6.108;2023-04-25T01:04:13;100869.38;;;7.33;100.00
73651;BME280;61944;52.538;6.108;2023-04-25T01:06:38;100869.97;;;7.10;100.00
73651;BME280;61944;52.538;6.108;2023-04-25T01:09:04;100866.97;;;7.47;100.00
73651;BME280;61944;52.538;6.108;2023-04-25T01:11:30;100870.69;;;7.51;100.00
73651;BME280;61944;52.538;6.108;2023-04-25T01:13:56;100866.97;;;7.47;100.00
73651;BME280;61944;52.538;6.108;2023-04-25T01:16:21;100876.41;;;7.59;100.00
73651;BME280;61944;52.538;6.108;2023-04-25T01:18:49;100882.72;;;7.56;100.00
73651;BME280;61944;52.538;6.108;2023-04-25T01:21:16;100885.75;;;7.50;100.00
73651;BME280;61944;52.538;6.108;2023-04-25T01:23:42;100885.06;;;7.53;100.00
73651;BME280;61944;52.538;6.108;2023-04-25T01:26:10;100891.25;;;6.90;100.00
73651;BME280;61944;52.538;6.108;2023-04-25T01:28:36;100893.88;;;6.99;100.00
73651;BME280;61944;52.538;6.108;2023-04-25T01:31:02;100885.84;;;6.69;100.00
73651;BME280;61944;52.538;6.108;2023-04-25T01:33:28;100903.50;;;7.02;100.00
73651;BME280;61944;52.538;6.108;2023-04-25T01:35:54;100895.09;;;6.86;100.00
73651;BME280;61944;52.538;6.108;2023-04-25T01:38:19;100892.34;;;7.02;100.00
73651;BME280;61944;52.538;6.108;2023-04-25T01:40:46;100892.34;;;7.02;100.00
73651;BME280;61944;52.538;6.108;2023-04-25T01:43:14;100888.00;;;6.88;100.00
73651;BME280;61944;52.538;6.108;2023-04-25T01:45:41;100890.59;;;7.09;100.00
73651;BME280;61944;52.538;6.108;2023-04-25T01:48:15;100895.03;;;7.10;100.00
73651;BME280;61944;52.538;6.108;2023-04-25T01:50:41;100888.41;;;7.31;100.00
73651;BME280;61944;52.538;6.108;2023-04-25T01:53:09;100896.53;;;7.36;100.00
73651;BME280;61944;52.538;6.108;2023-04-25T01:55:34;100897.28;;;7.21;100.00
73651;BME280;61944;52.538;6.108;2023-04-25T01:58:02;100895.78;;;6.83;100.00
73651;BME280;61944;52.538;6.108;2023-04-25T02:00:28;100899.06;;;7.13;100.00
73651;BME280;61944;52.538;6.108;2023-04-25T02:02:53;100904.47;;;7.22;100.00
73651;BME280;61944;52.538;6.108;2023-04-25T02:05:19;100907.81;;;7.27;100.00
73651;BME280;61944;52.538;6.108;2023-04-25T02:07:46;100898.63;;;7.27;100.00
73651;BME280;61944;52.538;6.108;2023-04-25T02:10:12;100909.31;;;7.25;100.00
73651;BME280;61944;52.538;6.108;2023-04-25T02:12:37;100906.34;;;7.18;100.00
73651;BME280;61944;52.538;6.108;2023-04-25T02:15:03;100903.78;;;7.12;100.00
73651;BME280;61944;52.538;6.108;2023-04-25T02:17:28;100903.22;;;7.19;100.00
73651;BME280;61944;52.538;6.108;2023-04-25T02:19:53;100905.16;;;7.19;100.00
73651;BME280;61944;52.538;6.108;2023-04-25T02:22:19;100915.84;;;7.17;100.00
73651;BME280;61944;52.538;6.108;2023-04-25T02:24:45;100900.47;;;7.07;100.00
73651;BME280;61944;52.538;6.108;2023-04-25T02:27:11;100905.63;;;7.21;100.00
73651;BME280;61944;52.538;6.108;2023-04-25T02:29:36;100911.31;;;7.24;100.00
73651;BME280;61944;52.538;6.108;2023-04-25T02:32:01;100910.59;;;6.87;100.00
73651;BME280;61944;52.538;6.108;2023-04-25T02:34:27;100907.56;;;7.04;100.00
73651;BME280;61944;52.538;6.108;2023-04-25T02:36:52;100908.88;;;7.23;100.00
73651;BME280;61944;52.538;6.108;2023-04-25T02:39:18;100902.75;;;7.17;100.00
73651;BME280;61944;52.538;6.108;2023-04-25T02:41:43;100906.22;;;7.14;100.00
73651;BME280;61944;52.538;6.108;2023-04-25T02:44:09;100909.78;;;7.27;100.00
73651;BME280;61944;52.538;6.108;2023-04-25T02:46:34;100907.59;;;7.20;100.00
73651;BME280;61944;52.538;6.108;2023-04-25T02:49:00;100925.53;;;7.35;100.00
73651;BME280;61944;52.538;6.108;2023-04-25T02:51:25;100929.72;;;7.29;100.00
73651;BME280;61944;52.538;6.108;2023-04-25T02:53:51;100925.63;;;7.10;100.00
73651;BME280;61944;52.538;6.108;2023-04-25T02:56:16;100934.78;;;7.11;100.00
73651;BME280;61944;52.538;6.108;2023-04-25T02:58:42;100931.50;;;7.21;100.00
73651;BME280;61944;52.538;6.108;2023-04-25T03:01:07;100929.06;;;7.20;100.00
73651;BME280;61944;52.538;6.108;2023-04-25T03:03:32;100931.13;;;7.23;100.00
73651;BME280;61944;52.538;6.108;2023-04-25T03:05:58;100921.41;;;6.76;100.00
73651;BME280;61944;52.538;6.108;2023-04-25T03:08:23;100926.28;;;6.91;100.00
73651;BME280;61944;52.538;6.108;2023-04-25T03:10:50;100925.00;;;6.77;100.00
73651;BME280;61944;52.538;6.108;2023-04-25T03:13:17;100934.28;;;6.81;100.00
73651;BME280;61944;52.538;6.108;2023-04-25T03:15:42;100927.91;;;6.80;100.00
73651;BME280;61944;52.538;6.108;2023-04-25T03:18:07;100944.13;;;6.78;100.00
73651;BME280;61944;52.538;6.108;2023-04-25T03:20:33;100939.75;;;6.77;100.00
73651;BME280;61944;52.538;6.108;2023-04-25T03:22:58;100945.53;;;6.72;100.00
73651;BME280;61944;52.538;6.108;2023-04-25T03:25:24;100947.84;;;6.82;100.00
73651;BME280;61944;52.538;6.108;2023-04-25T03:27:49;100943.94;;;6.71;100.00
73651;BME280;61944;52.538;6.108;2023-04-25T03:30:14;100954.72;;;6.72;100.00
73651;BME280;61944;52.538;6.108;2023-04-25T03:32:40;100947.50;;;6.71;100.00
73651;BME280;61944;52.538;6.108;2023-04-25T03:35:05;100960.69;;;6.87;100.00
73651;BME280;61944;52.538;6.108;2023-04-25T03:37:31;100946.84;;;6.75;100.00
73651;BME280;61944;52.538;6.108;2023-04-25T03:39:56;100958.88;;;6.66;100.00
73651;BME280;61944;52.538;6.108;2023-04-25T03:42:21;100950.97;;;6.81;100.00
73651;BME280;61944;52.538;6.108;2023-04-25T03:44:48;100946.63;;;7.08;100.00
73651;BME280;61944;52.538;6.108;2023-04-25T03:47:14;100954.16;;;7.07;100.00
73651;BME280;61944;52.538;6.108;2023-04-25T03:49:39;100966.50;;;6.94;100.00
73651;BME280;61944;52.538;6.108;2023-04-25T03:52:04;100960.75;;;6.75;100.00
73651;BME280;61944;52.538;6.108;2023-04-25T03:54:30;100962.69;;;6.86;100.00
73651;BME280;61944;52.538;6.108;2023-04-25T03:56:56;100967.19;;;6.79;100.00
73651;BME280;61944;52.538;6.108;2023-04-25T03:59:21;100954.91;;;6.80;100.00
73651;BME280;61944;52.538;6.108;2023-04-25T04:01:47;100968.03;;;6.79;100.00
73651;BME280;61944;52.538;6.108;2023-04-25T04:04:12;100978.09;;;6.96;100.00
73651;BME280;61944;52.538;6.108;2023-04-25T04:06:37;100963.25;;;6.92;100.00
73651;BME280;61944;52.538;6.108;2023-04-25T04:09:03;100969.97;;;6.91;100.00
73651;BME280;61944;52.538;6.108;2023-04-25T04:11:28;100976.22;;;7.00;100.00
73651;BME280;61944;52.538;6.108;2023-04-25T04:13:53;100981.47;;;6.53;100.00
73651;BME280;61944;52.538;6.108;2023-04-25T04:16:19;100979.25;;;6.83;100.00
73651;BME280;61944;52.538;6.108;2023-04-25T04:18:45;100987.59;;;6.95;100.00
73651;BME280;61944;52.538;6.108;2023-04-25T04:21:11;100984.31;;;7.05;100.00
73651;BME280;61944;52.538;6.108;2023-04-25T04:23:36;100987.56;;;7.07;100.00
73651;BME280;61944;52.538;6.108;2023-04-25T04:26:02;100987.81;;;7.02;100.00
73651;BME280;61944;52.538;6.108;2023-04-25T04:28:28;100996.41;;;6.85;100.00
73651;BME280;61944;52.538;6.108;2023-04-25T04:30:53;100986.81;;;6.70;100.00
73651;BME280;61944;52.538;6.108;2023-04-25T04:33:18;100977.44;;;6.75;100.00
73651;BME280;61944;52.538;6.108;2023-04-25T04:35:45;100985.84;;;6.90;100.00
73651;BME280;61944;52.538;6.108;2023-04-25T04:38:12;100993.06;;;6.91;100.00
73651;BME280;61944;52.538;6.108;2023-04-25T04:40:37;101000.69;;;6.58;100.00
73651;BME280;61944;52.538;6.108;2023-04-25T04:43:03;101005.00;;;6.43;100.00
73651;BME280;61944;52.538;6.108;2023-04-25T04:45:28;101004.53;;;6.78;100.00
73651;BME280;61944;52.538;6.108;2023-04-25T04:47:54;101008.25;;;6.69;100.00
73651;BME280;61944;52.538;6.108;2023-04-25T04:50:20;101010.75;;;6.99;100.00
73651;BME280;61944;52.538;6.108;2023-04-25T04:52:45;101016.22;;;6.96;100.00
73651;BME280;61944;52.538;6.108;2023-04-25T04:55:11;101013.69;;;6.90;100.00
73651;BME280;61944;52.538;6.108;2023-04-25T04:57:36;101027.50;;;6.75;100.00
73651;BME280;61944;52.538;6.108;2023-04-25T05:00:04;101024.94;;;6.57;100.00
73651;BME280;61944;52.538;6.108;2023-04-25T05:02:30;101024.47;;;6.80;100.00
73651;BME280;61944;52.538;6.108;2023-04-25T05:04:55;101031.41;;;6.98;100.00
73651;BME280;61944;52.538;6.108;2023-04-25T05:07:21;101030.72;;;7.01;100.00
73651;BME280;61944;52.538;6.108;2023-04-25T05:09:47;101037.19;;;7.18;100.00
73651;BME280;61944;52.538;6.108;2023-04-25T05:12:12;101033.28;;;7.06;100.00
73651;BME280;61944;52.538;6.108;2023-04-25T05:14:37;101035.81;;;7.11;100.00
73651;BME280;61944;52.538;6.108;2023-04-25T05:17:03;101049.06;;;6.78;100.00
73651;BME280;61944;52.538;6.108;2023-04-25T05:19:32;101049.06;;;6.90;100.00
73651;BME280;61944;52.538;6.108;2023-04-25T05:21:57;101033.41;;;6.85;100.00
73651;BME280;61944;52.538;6.108;2023-04-25T05:24:23;101051.97;;;6.94;100.00
73651;BME280;61944;52.538;6.108;2023-04-25T05:26:48;101048.34;;;6.93;100.00
73651;BME280;61944;52.538;6.108;2023-04-25T05:29:13;101061.31;;;6.77;100.00
73651;BME280;61944;52.538;6.108;2023-04-25T05:31:39;101065.50;;;6.95;100.00
73651;BME280;61944;52.538;6.108;2023-04-25T05:34:04;101054.50;;;6.74;100.00
73651;BME280;61944;52.538;6.108;2023-04-25T05:36:30;101067.13;;;6.96;100.00
73651;BME280;61944;52.538;6.108;2023-04-25T05:38:57;101056.69;;;6.93;100.00
73651;BME280;61944;52.538;6.108;2023-04-25T05:41:23;101069.69;;;6.89;100.00
73651;BME280;61944;52.538;6.108;2023-04-25T05:43:48;101070.59;;;7.05;100.00
73651;BME280;61944;52.538;6.108;2023-04-25T05:46:14;101078.03;;;6.89;100.00
73651;BME280;61944;52.538;6.108;2023-04-25T05:48:42;101085.56;;;6.88;100.00
73651;BME280;61944;52.538;6.108;2023-04-25T05:51:07;101082.44;;;6.78;100.00
73651;BME280;61944;52.538;6.108;2023-04-25T05:53:33;101085.22;;;6.90;100.00
73651;BME280;61944;52.538;6.108;2023-04-25T05:55:59;101090.75;;;7.15;100.00
73651;BME280;61944;52.538;6.108;2023-04-25T05:58:24;101090.09;;;6.93;100.00
73651;BME280;61944;52.538;6.108;2023-04-25T06:00:50;101103.06;;;7.01;100.00
73651;BME280;61944;52.538;6.108;2023-04-25T06:03:15;101101.22;;;7.05;100.00
73651;BME280;61944;52.538;6.108;2023-04-25T06:05:41;101104.00;;;7.05;100.00
73651;BME280;61944;52.538;6.108;2023-04-25T06:08:08;101111.41;;;6.89;100.00
73651;BME280;61944;52.538;6.108;2023-04-25T06:10:33;101096.34;;;6.90;100.00
73651;BME280;61944;52.538;6.108;2023-04-25T06:12:59;101109.78;;;7.12;100.00
73651;BME280;61944;52.538;6.108;2023-04-25T06:15:24;101105.03;;;7.25;100.00
73651;BME280;61944;52.538;6.108;2023-04-25T06:17:49;101104.69;;;7.27;100.00
73651;BME280;61944;52.538;6.108;2023-04-25T06:20:15;101104.69;;;7.27;100.00
73651;BME280;61944;52.538;6.108;2023-04-25T06:22:40;101107.38;;;7.11;100.00
73651;BME280;61944;52.538;6.108;2023-04-25T06:25:06;101111.41;;;7.38;100.00
73651;BME280;61944;52.538;6.108;2023-04-25T06:27:33;101115.59;;;7.32;100.00
73651;BME280;61944;52.538;6.108;2023-04-25T06:29:58;101117.53;;;7.31;100.00
73651;BME280;61944;52.538;6.108;2023-04-25T06:32:23;101118.97;;;7.25;100.00
73651;BME280;61944;52.538;6.108;2023-04-25T06:34:49;101111.22;;;7.06;100.00
73651;BME280;61944;52.538;6.108;2023-04-25T06:37:14;101129.16;;;7.33;100.00
73651;BME280;61944;52.538;6.108;2023-04-25T06:39:40;101129.84;;;7.43;100.00
73651;BME280;61944;52.538;6.108;2023-04-25T06:42:05;101122.28;;;7.43;100.00
73651;BME280;61944;52.538;6.108;2023-04-25T06:44:30;101113.50;;;7.29;100.00
73651;BME280;61944;52.538;6.108;2023-04-25T06:46:56;101129.59;;;7.36;100.00
73651;BME280;61944;52.538;6.108;2023-04-25T06:49:21;101130.91;;;7.26;100.00
73651;BME280;61944;52.538;6.108;2023-04-25T06:51:47;101131.13;;;7.33;100.00
73651;BME280;61944;52.538;6.108;2023-04-25T06:54:13;101143.91;;;7.34;100.00
73651;BME280;61944;52.538;6.108;2023-04-25T06:56:38;101133.09;;;7.20;100.00
73651;BME280;61944;52.538;6.108;2023-04-25T06:59:04;101143.19;;;7.37;100.00
73651;BME280;61944;52.538;6.108;2023-04-25T07:01:29;101149.94;;;7.24;100.00
73651;BME280;61944;52.538;6.108;2023-04-25T07:03:55;101154.56;;;7.20;100.00
73651;BME280;61944;52.538;6.108;2023-04-25T07:06:20;101158.28;;;7.24;100.00
73651;BME280;61944;52.538;6.108;2023-04-25T07:08:45;101157.34;;;7.20;100.00
73651;BME280;61944;52.538;6.108;2023-04-25T07:11:11;101162.59;;;7.09;100.00
73651;BME280;61944;52.538;6.108;2023-04-25T07:13:37;101155.50;;;6.99;100.00
73651;BME280;61944;52.538;6.108;2023-04-25T07:16:03;101161.78;;;7.08;100.00
73651;BME280;61944;52.538;6.108;2023-04-25T07:18:29;101156.31;;;7.24;100.00
73651;BME280;61944;52.538;6.108;2023-04-25T07:20:55;101165.34;;;7.46;100.00
73651;BME280;61944;52.538;6.108;2023-04-25T07:23:21;101171.03;;;7.62;100.00
73651;BME280;61944;52.538;6.108;2023-04-25T07:25:46;101165.22;;;7.54;100.00
73651;BME280;61944;52.538;6.108;2023-04-25T07:28:17;101168.50;;;7.32;100.00
73651;BME280;61944;52.538;6.108;2023-04-25T07:30:43;101152.25;;;7.22;100.00
73651;BME280;61944;52.538;6.108;2023-04-25T07:33:08;101175.44;;;7.50;100.00
73651;BME280;61944;52.538;6.108;2023-04-25T07:35:34;101171.03;;;7.62;100.00
73651;BME280;61944;52.538;6.108;2023-04-25T07:38:00;101179.84;;;7.51;100.00
73651;BME280;61944;52.538;6.108;2023-04-25T07:40:25;101188.22;;;7.51;100.00
73651;BME280;61944;52.538;6.108;2023-04-25T07:42:50;101189.72;;;7.37;100.00
73651;BME280;61944;52.538;6.108;2023-04-25T07:45:16;101189.94;;;7.56;100.00
73651;BME280;61944;52.538;6.108;2023-04-25T07:47:41;101191.78;;;7.52;100.00
73651;BME280;61944;52.538;6.108;2023-04-25T07:50:09;101179.84;;;7.39;100.00
73651;BME280;61944;52.538;6.108;2023-04-25T07:52:36;101191.56;;;7.57;100.00
73651;BME280;61944;52.538;6.108;2023-04-25T07:55:01;101194.69;;;7.31;100.00
73651;BME280;61944;52.538;6.108;2023-04-25T07:57:26;101199.94;;;7.45;100.00
73651;BME280;61944;52.538;6.108;2023-04-25T07:59:52;101201.06;;;7.68;100.00
73651;BME280;61944;52.538;6.108;2023-04-25T08:02:17;101196.78;;;7.71;100.00
73651;BME280;61944;52.538;6.108;2023-04-25T08:04:42;101194.22;;;7.66;100.00
73651;BME280;61944;52.538;6.108;2023-04-25T08:07:08;101206.75;;;7.72;100.00
73651;BME280;61944;52.538;6.108;2023-04-25T08:09:33;101203.53;;;7.58;100.00
73651;BME280;61944;52.538;6.108;2023-04-25T08:12:00;101208.16;;;7.78;100.00
73651;BME280;61944;52.538;6.108;2023-04-25T08:14:26;101220.91;;;7.79;99.48
73651;BME280;61944;52.538;6.108;2023-04-25T08:16:52;101208.84;;;7.75;99.88
73651;BME280;61944;52.538;6.108;2023-04-25T08:19:17;101214.19;;;7.68;99.04
73651;BME280;61944;52.538;6.108;2023-04-25T08:21:43;101212.03;;;8.02;100.00
73651;BME280;61944;52.538;6.108;2023-04-25T08:24:08;101217.38;;;7.94;100.00
73651;BME280;61944;52.538;6.108;2023-04-25T08:26:33;101223.97;;;8.14;100.00
73651;BME280;61944;52.538;6.108;2023-04-25T08:28:59;101211.16;;;8.26;99.52
73651;BME280;61944;52.538;6.108;2023-04-25T08:31:25;101222.28;;;7.98;96.56
73651;BME280;61944;52.538;6.108;2023-04-25T08:33:50;101229.63;;;7.78;94.21
73651;BME280;61944;52.538;6.108;2023-04-25T08:36:17;101219.19;;;7.74;96.10
73651;BME280;61944;52.538;6.108;2023-04-25T08:38:42;101239.34;;;7.84;96.12
73651;BME280;61944;52.538;6.108;2023-04-25T08:41:08;101235.03;;;7.99;95.78
73651;BME280;61944;52.538;6.108;2023-04-25T08:43:36;101227.97;;;8.01;93.86
73651;BME280;61944;52.538;6.108;2023-04-25T08:46:02;101234.47;;;8.05;90.00
73651;BME280;61944;52.538;6.108;2023-04-25T08:48:29;101245.25;;;8.07;88.02
73651;BME280;61944;52.538;6.108;2023-04-25T08:50:57;101250.66;;;8.28;89.48
73651;BME280;61944;52.538;6.108;2023-04-25T08:53:31;101256.09;;;8.37;88.16
73651;BME280;61944;52.538;6.108;2023-04-25T08:55:59;101249.50;;;8.29;90.87
73651;BME280;61944;52.538;6.108;2023-04-25T08:58:25;101254.19;;;8.12;93.55
73651;BME280;61944;52.538;6.108;2023-04-25T09:00:51;101264.56;;;8.00;96.64
73651;BME280;61944;52.538;6.108;2023-04-25T09:03:17;101276.75;;;7.83;97.80
73651;BME280;61944;52.538;6.108;2023-04-25T09:05:43;101280.56;;;7.90;95.45
73651;BME280;61944;52.538;6.108;2023-04-25T09:08:09;101283.81;;;7.92;96.42
73651;BME280;61944;52.538;6.108;2023-04-25T09:10:35;101285.94;;;7.96;95.66
73651;BME280;61944;52.538;6.108;2023-04-25T09:13:04;101280.59;;;7.66;94.87
73651;BME280;61944;52.538;6.108;2023-04-25T09:15:31;101282.88;;;8.01;95.07
73651;BME280;61944;52.538;6.108;2023-04-25T09:17:57;101285.09;;;8.07;95.55
73651;BME280;61944;52.538;6.108;2023-04-25T09:20:23;101293.28;;;8.28;93.82
73651;BME280;61944;52.538;6.108;2023-04-25T09:23:01;101296.00;;;8.25;94.81
73651;BME280;61944;52.538;6.108;2023-04-25T09:25:26;101290.00;;;8.39;94.05
73651;BME280;61944;52.538;6.108;2023-04-25T09:27:53;101287.44;;;8.58;94.32
73651;BME280;61944;52.538;6.108;2023-04-25T09:30:29;101286.47;;;8.66;92.44
73651;BME280;61944;52.538;6.108;2023-04-25T09:33:09;101297.44;;;8.59;89.95
73651;BME280;61944;52.538;6.108;2023-04-25T09:35:42;101293.97;;;8.50;88.95
73651;BME280;61944;52.538;6.108;2023-04-25T09:38:12;101311.06;;;8.36;89.07
73651;BME280;61944;52.538;6.108;2023-04-25T09:40:45;101329.56;;;8.28;94.34
73651;BME280;61944;52.538;6.108;2023-04-25T09:43:22;101336.78;;;8.17;98.34
73651;BME280;61944;52.538;6.108;2023-04-25T09:45:48;101334.59;;;8.10;98.67
73651;BME280;61944;52.538;6.108;2023-04-25T09:48:18;101312.66;;;7.84;94.59
73651;BME280;61944;52.538;6.108;2023-04-25T09:50:44;101334.84;;;8.05;97.91
73651;BME280;61944;52.538;6.108;2023-04-25T09:53:10;101330.41;;;8.17;93.63
73651;BME280;61944;52.538;6.108;2023-04-25T09:55:35;101337.59;;;8.18;92.00
73651;BME280;61944;52.538;6.108;2023-04-25T09:58:04;101349.09;;;8.41;96.15
73651;BME280;61944;52.538;6.108;2023-04-25T10:00:32;101345.34;;;8.37;92.55
73651;BME280;61944;52.538;6.108;2023-04-25T10:03:01;101346.53;;;8.48;93.55
73651;BME280;61944;52.538;6.108;2023-04-25T10:05:30;101343.28;;;8.09;87.04
73651;BME280;61944;52.538;6.108;2023-04-25T10:07:59;101335.81;;;8.38;88.58
73651;BME280;61944;52.538;6.108;2023-04-25T10:10:28;101343.81;;;8.64;88.08
73651;BME280;61944;52.538;6.108;2023-04-25T10:12:55;101333.78;;;8.75;87.23
73651;BME280;61944;52.538;6.108;2023-04-25T10:15:21;101337.84;;;8.78;86.90
73651;BME280;61944;52.538;6.108;2023-04-25T10:17:49;101334.59;;;8.75;82.65
73651;BME280;61944;52.538;6.108;2023-04-25T10:20:15;101328.09;;;9.00;82.91
73651;BME280;61944;52.538;6.108;2023-04-25T10:22:42;101334.78;;;9.11;80.41
73651;BME280;61944;52.538;6.108;2023-04-25T10:25:09;101340.22;;;9.35;84.22
73651;BME280;61944;52.538;6.108;2023-04-25T10:27:36;101340.38;;;9.11;81.50
73651;BME280;61944;52.538;6.108;2023-04-25T10:30:10;101350.59;;;9.35;88.66
73651;BME280;61944;52.538;6.108;2023-04-25T10:32:37;101354.81;;;9.13;85.29
73651;BME280;61944;52.538;6.108;2023-04-25T10:37:37;101349.72;;;9.63;84.41
73651;BME280;61944;52.538;6.108;2023-04-25T10:40:10;101366.69;;;9.86;82.39
73651;BME280;61944;52.538;6.108;2023-04-25T10:42:35;101376.41;;;9.76;85.99
73651;BME280;61944;52.538;6.108;2023-04-25T10:45:05;101375.97;;;9.14;90.18
73651;BME280;61944;52.538;6.108;2023-04-25T10:47:43;101365.94;;;9.41;92.05
73651;BME280;61944;52.538;6.108;2023-04-25T10:50:09;101381.22;;;9.31;91.66
73651;BME280;61944;52.538;6.108;2023-04-25T10:52:38;101377.81;;;8.94;92.84
73651;BME280;61944;52.538;6.108;2023-04-25T10:55:04;101367.00;;;9.08;91.11
73651;BME280;61944;52.538;6.108;2023-04-25T11:00:14;101378.75;;;9.14;92.54
73651;BME280;61944;52.538;6.108;2023-04-25T11:02:45;101369.47;;;9.10;93.77
73651;BME280;61944;52.538;6.108;2023-04-25T11:05:32;101374.78;;;8.87;93.70
73651;BME280;61944;52.538;6.108;2023-04-25T11:07:59;101376.19;;;8.81;94.97
73651;BME280;61944;52.538;6.108;2023-04-25T11:10:29;101387.03;;;9.10;91.13
73651;BME280;61944;52.538;6.108;2023-04-25T11:12:56;101375.84;;;9.54;89.49
73651;BME280;61944;52.538;6.108;2023-04-25T11:15:22;101384.53;;;9.21;88.91
73651;BME280;61944;52.538;6.108;2023-04-25T11:17:47;101375.69;;;8.91;91.30
73651;BME280;61944;52.538;6.108;2023-04-25T11:20:13;101390.84;;;8.90;92.25
73651;BME280;61944;52.538;6.108;2023-04-25T11:22:41;101390.44;;;9.32;87.35
73651;BME280;61944;52.538;6.108;2023-04-25T11:25:08;101395.97;;;9.60;89.36
73651;BME280;61944;52.538;6.108;2023-04-25T11:27:34;101392.03;;;9.33;89.24
73651;BME280;61944;52.538;6.108;2023-04-25T11:30:13;101400.47;;;9.21;89.33
73651;BME280;61944;52.538;6.108;2023-04-25T11:32:40;101386.19;;;8.94;88.29
73651;BME280;61944;52.538;6.108;2023-04-25T11:35:06;101409.31;;;8.94;84.89
73651;BME280;61944;52.538;6.108;2023-04-25T11:37:32;101411.00;;;8.71;79.72
73651;BME280;61944;52.538;6.108;2023-04-25T11:39:59;101409.72;;;8.68;79.85
73651;BME280;61944;52.538;6.108;2023-04-25T11:42:25;101399.91;;;8.87;82.37
73651;BME280;61944;52.538;6.108;2023-04-25T11:44:50;101395.91;;;9.00;81.86
73651;BME280;61944;52.538;6.108;2023-04-25T11:47:16;101402.16;;;9.09;83.14
73651;BME280;61944;52.538;6.108;2023-04-25T11:49:41;101403.94;;;9.30;81.98
73651;BME280;61944;52.538;6.108;2023-04-25T11:52:07;101420.41;;;8.66;94.28
73651;BME280;61944;52.538;6.108;2023-04-25T11:54:35;101404.88;;;8.41;95.97
73651;BME280;61944;52.538;6.108;2023-04-25T11:57:01;101416.28;;;8.60;98.79
73651;BME280;61944;52.538;6.108;2023-04-25T11:59:29;101409.09;;;8.87;98.91
73651;BME280;61944;52.538;6.108;2023-04-25T12:01:55;101412.34;;;8.89;95.33
73651;BME280;61944;52.538;6.108;2023-04-25T12:04:22;101413.16;;;9.46;96.13
73651;BME280;61944;52.538;6.108;2023-04-25T12:06:52;101409.09;;;9.44;83.23
73651;BME280;61944;52.538;6.108;2023-04-25T12:09:40;101425.81;;;9.56;85.15
73651;BME280;61944;52.538;6.108;2023-04-25T12:12:09;101431.75;;;9.54;89.27
73651;BME280;61944;52.538;6.108;2023-04-25T12:14:35;101437.03;;;9.44;84.65
73651;BME280;61944;52.538;6.108;2023-04-25T12:17:02;101437.16;;;9.47;87.74
73651;BME280;61944;52.538;6.108;2023-04-25T12:19:33;101433.97;;;9.77;84.47
73651;BME280;61944;52.538;6.108;2023-04-25T12:22:01;101441.59;;;9.64;89.60
73651;BME280;61944;52.538;6.108;2023-04-25T12:24:28;101441.16;;;9.78;92.80
73651;BME280;61944;52.538;6.108;2023-04-25T12:27:03;101446.28;;;9.60;90.85
73651;BME280;61944;52.538;6.108;2023-04-25T12:29:31;101455.06;;;9.90;89.68
73651;BME280;61944;52.538;6.108;2023-04-25T12:31:57;101453.00;;;10.03;88.11
73651;BME280;61944;52.538;6.108;2023-04-25T12:34:23;101444.41;;;9.80;84.44
73651;BME280;61944;52.538;6.108;2023-04-25T12:36:49;101451.94;;;10.08;83.89
73651;BME280;61944;52.538;6.108;2023-04-25T12:39:16;101441.91;;;10.07;82.86
73651;BME280;61944;52.538;6.108;2023-04-25T12:41:42;101445.81;;;10.02;78.45
73651;BME280;61944;52.538;6.108;2023-04-25T12:44:07;101449.16;;;10.08;84.99
73651;BME280;61944;52.538;6.108;2023-04-25T12:46:33;101455.00;;;10.03;79.64
73651;BME280;61944;52.538;6.108;2023-04-25T12:48:58;101457.25;;;10.13;76.44
73651;BME280;61944;52.538;6.108;2023-04-25T12:51:23;101461.56;;;10.58;75.68
73651;BME280;61944;52.538;6.108;2023-04-25T12:53:50;101469.06;;;10.54;72.57